Time;durP1;ratioP1;P1;durP2;ratioP2;P2;SDS_P1;SDS_P2;PMS_P1;PMS_P2;Temp;Humidity;BMP_temperature;BMP_pressure;BME280_temperature;BME280_humidity;BME280_pressure;Samples;Min_cycle;Max_cycle;Signal;HPM_P1;HPM_P2
2022/07/18 00:01:07;;;;;;;4.23;3.10;;;;;;;;;;5080382;28;21051;-69
2022/07/18 00:03:35;;;;;;;4.77;3.00;;;;;;;;;;5083937;28;20597;-69
2022/07/18 00:06:03;;;;;;;6.27;3.17;;;;;;;;;;5085669;28;20455;-69
2022/07/18 00:08:30;;;;;;;4.53;2.97;;;;;;;;;;5075787;28;20964;-69
2022/07/18 00:10:58;;;;;;;7.23;2.60;;;;;;;;;;5075210;28;20464;-70
2022/07/18 00:13:29;;;;;;;5.87;3.50;;;;;;;;;;5074393;28;20854;-69
2022/07/18 00:15:58;;;;;;;4.73;2.67;;;;;;;;;;5085235;28;20909;-69
2022/07/18 00:18:25;;;;;;;9.07;3.67;;;;;;;;;;5092957;28;20534;-69
2022/07/18 00:20:53;;;;;;;6.53;3.60;;;;;;;;;;5083741;28;20455;-69
2022/07/18 00:23:21;;;;;;;6.13;3.30;;;;;;;;;;5092963;28;20574;-69
2022/07/18 00:25:49;;;;;;;4.83;2.87;;;;;;;;;;5081219;28;21213;-69
2022/07/18 00:28:16;;;;;;;4.90;2.70;;;;;;;;;;5081159;28;20555;-69
2022/07/18 00:30:48;;;;;;;5.27;3.07;;;;;;;;;;5081971;28;20718;-69
2022/07/18 00:33:17;;;;;;;5.10;3.00;;;;;;;;;;5086729;28;20475;-69
2022/07/18 00:35:45;;;;;;;3.80;2.57;;;;;;;;;;5083155;28;20487;-69
2022/07/18 00:38:13;;;;;;;3.70;3.10;;;;;;;;;;5073239;28;20468;-69
2022/07/18 00:40:41;;;;;;;5.67;3.43;;;;;;;;;;5081937;28;20805;-69
2022/07/18 00:43:13;;;;;;;5.50;2.90;;;;;;;;;;5072940;28;20477;-69
2022/07/18 00:45:41;;;;;;;3.80;2.60;;;;;;;;;;5081350;28;20458;-69
2022/07/18 00:48:09;;;;;;;4.20;3.10;;;;;;;;;;5084882;28;20471;-69
2022/07/18 00:50:38;;;;;;;5.00;3.03;;;;;;;;;;5085979;28;20464;-69
2022/07/18 00:53:07;;;;;;;5.07;2.77;;;;;;;;;;5074781;28;20498;-69
2022/07/18 00:55:35;;;;;;;3.60;2.30;;;;;;;;;;5076466;28;20457;-68
2022/07/18 00:58:03;;;;;;;4.60;3.27;;;;;;;;;;5092213;28;20548;-70
2022/07/18 01:03:16;;;;;;;4.23;2.60;;;;;;;;;;5072753;28;20467;-70
2022/07/18 01:05:45;;;;;;;7.57;2.80;;;;;;;;;;5090145;28;20475;-70
2022/07/18 01:08:13;;;;;;;4.97;2.63;;;;;;;;;;5072798;28;20457;-70
2022/07/18 01:10:40;;;;;;;5.33;2.80;;;;;;;;;;5079615;28;20455;-69
2022/07/18 01:13:08;;;;;;;6.43;2.70;;;;;;;;;;5092855;28;20715;-69
2022/07/18 01:15:36;;;;;;;3.77;2.90;;;;;;;;;;5080057;28;20459;-69
2022/07/18 01:18:03;;;;;;;5.13;3.00;;;;;;;;;;5089728;28;20799;-70
2022/07/18 01:20:33;;;;;;;4.53;2.93;;;;;;;;;;5081729;28;20449;-69
2022/07/18 01:23:01;;;;;;;5.83;2.97;;;;;;;;;;5073384;28;20483;-69
2022/07/18 01:25:29;;;;;;;5.30;2.90;;;;;;;;;;5093952;28;20853;-69
2022/07/18 01:27:56;;;;;;;10.23;3.03;;;;;;;;;;5077360;28;20453;-70
2022/07/18 01:30:24;;;;;;;5.10;2.93;;;;;;;;;;5085178;28;20456;-70
2022/07/18 01:32:59;;;;;;;4.10;3.30;;;;;;;;;;5093433;28;20559;-69
2022/07/18 01:35:30;;;;;;;4.50;2.70;;;;;;;;;;5076005;28;20479;-70
2022/07/18 01:38:01;;;;;;;4.87;3.23;;;;;;;;;;5092868;28;21024;-69
2022/07/18 01:40:29;;;;;;;5.23;3.07;;;;;;;;;;5073396;28;20459;-70
2022/07/18 01:43:03;;;;;;;5.10;3.10;;;;;;;;;;5072836;28;20946;-69
2022/07/18 01:45:38;;;;;;;6.90;3.90;;;;;;;;;;5086786;28;20462;-70
2022/07/18 01:48:10;;;;;;;4.90;3.07;;;;;;;;;;5076269;28;20460;-70
2022/07/18 01:50:38;;;;;;;4.33;2.80;;;;;;;;;;5073148;28;20551;-70
2022/07/18 01:53:07;;;;;;;3.87;2.83;;;;;;;;;;5072790;28;21131;-69
2022/07/18 01:55:35;;;;;;;4.10;2.87;;;;;;;;;;5075570;28;20467;-69
2022/07/18 01:58:03;;;;;;;7.07;3.13;;;;;;;;;;5093363;28;20451;-69
2022/07/18 02:00:31;;;;;;;3.40;2.60;;;;;;;;;;5081744;28;20459;-69
2022/07/18 02:03:01;;;;;;;5.93;3.10;;;;;;;;;;5079247;28;20490;-70
2022/07/18 02:05:29;;;;;;;4.70;3.20;;;;;;;;;;5083083;28;20901;-70
2022/07/18 02:07:57;;;;;;;8.43;2.60;;;;;;;;;;5073493;28;20543;-70
2022/07/18 02:10:26;;;;;;;3.60;2.63;;;;;;;;;;5080027;28;20496;-70
2022/07/18 02:12:54;;;;;;;4.00;2.73;;;;;;;;;;5084197;28;20543;-69
2022/07/18 02:15:21;;;;;;;3.90;3.00;;;;;;;;;;5075487;28;20498;-69
2022/07/18 02:17:49;;;;;;;4.77;2.90;;;;;;;;;;5075377;28;20459;-69
2022/07/18 02:20:17;;;;;;;4.37;3.13;;;;;;;;;;5075530;28;20530;-69
2022/07/18 02:22:45;;;;;;;5.70;3.63;;;;;;;;;;5077442;28;20492;-69
2022/07/18 02:25:13;;;;;;;4.63;3.40;;;;;;;;;;5095629;28;20870;-69
2022/07/18 02:27:42;;;;;;;4.87;3.20;;;;;;;;;;5075043;28;20448;-69
2022/07/18 02:30:11;;;;;;;4.20;3.20;;;;;;;;;;5081627;28;20455;-69
2022/07/18 02:32:39;;;;;;;8.03;3.60;;;;;;;;;;5087712;28;20457;-70
2022/07/18 02:35:08;;;;;;;4.37;3.10;;;;;;;;;;5075201;28;20457;-69
2022/07/18 02:37:41;;;;;;;5.87;3.23;;;;;;;;;;5076108;28;20490;-69
2022/07/18 02:40:10;;;;;;;4.17;3.40;;;;;;;;;;5091298;28;20459;-69
2022/07/18 02:42:37;;;;;;;10.10;3.30;;;;;;;;;;5075230;28;20467;-70
2022/07/18 02:45:07;;;;;;;5.00;3.27;;;;;;;;;;5081653;28;20439;-70
2022/07/18 02:47:35;;;;;;;6.77;3.63;;;;;;;;;;5075566;28;20849;-70
2022/07/18 02:50:03;;;;;;;4.10;3.37;;;;;;;;;;5077434;28;20483;-69
2022/07/18 02:52:31;;;;;;;4.70;3.07;;;;;;;;;;5079454;28;20798;-69
2022/07/18 02:55:00;;;;;;;6.50;3.67;;;;;;;;;;5082862;28;20951;-70
2022/07/18 02:57:28;;;;;;;6.00;3.53;;;;;;;;;;5076416;28;20744;-69
2022/07/18 02:59:56;;;;;;;5.20;3.70;;;;;;;;;;5090643;28;20513;-69
2022/07/18 03:02:27;;;;;;;9.23;3.83;;;;;;;;;;5088030;28;20491;-69
2022/07/18 03:04:54;;;;;;;7.27;3.63;;;;;;;;;;5085452;28;20480;-69
2022/07/18 03:07:22;;;;;;;4.47;3.80;;;;;;;;;;5079803;28;20817;-69
2022/07/18 03:09:50;;;;;;;9.30;3.67;;;;;;;;;;5094585;28;20475;-69
2022/07/18 03:12:21;;;;;;;4.23;3.27;;;;;;;;;;5079692;28;20562;-69
2022/07/18 03:14:49;;;;;;;6.77;3.90;;;;;;;;;;5087304;28;20880;-69
2022/07/18 03:17:17;;;;;;;4.93;3.07;;;;;;;;;;5078872;28;20468;-69
2022/07/18 03:19:46;;;;;;;6.07;3.43;;;;;;;;;;5081185;28;20541;-69
2022/07/18 03:22:13;;;;;;;5.37;3.80;;;;;;;;;;5084753;28;20462;-69
2022/07/18 03:24:43;;;;;;;5.63;3.40;;;;;;;;;;5079128;28;20557;-70
2022/07/18 03:27:10;;;;;;;7.07;3.93;;;;;;;;;;5074936;28;20468;-69
2022/07/18 03:29:38;;;;;;;5.80;3.73;;;;;;;;;;5083941;28;20461;-69
2022/07/18 03:32:06;;;;;;;5.03;3.43;;;;;;;;;;5083520;28;20549;-70
2022/07/18 03:34:34;;;;;;;4.53;2.70;;;;;;;;;;5086246;28;20552;-69
2022/07/18 03:37:03;;;;;;;6.60;3.40;;;;;;;;;;5078741;28;20463;-69
2022/07/18 03:39:31;;;;;;;6.70;4.20;;;;;;;;;;5078056;28;20455;-69
2022/07/18 03:41:58;;;;;;;4.73;3.20;;;;;;;;;;5077197;28;20460;-70
2022/07/18 03:44:26;;;;;;;6.20;3.33;;;;;;;;;;5074774;28;20757;-69
2022/07/18 03:46:54;;;;;;;4.50;3.57;;;;;;;;;;5089177;28;20463;-69
2022/07/18 03:49:21;;;;;;;5.57;3.30;;;;;;;;;;5083522;28;20464;-69
2022/07/18 03:51:49;;;;;;;5.30;3.70;;;;;;;;;;5082740;28;20449;-69
2022/07/18 03:54:18;;;;;;;6.00;3.50;;;;;;;;;;5090933;28;20730;-69
2022/07/18 03:56:46;;;;;;;5.00;3.20;;;;;;;;;;5082066;28;20459;-69
2022/07/18 03:59:13;;;;;;;8.83;3.60;;;;;;;;;;5081735;28;20471;-69
2022/07/18 04:01:41;;;;;;;4.40;3.00;;;;;;;;;;5076264;28;20453;-69
2022/07/18 04:04:09;;;;;;;5.27;3.90;;;;;;;;;;5074489;28;20480;-69
2022/07/18 04:06:39;;;;;;;5.90;3.70;;;;;;;;;;5082018;28;20867;-70
2022/07/18 04:09:10;;;;;;;5.83;3.70;;;;;;;;;;5081716;28;20449;-70
2022/07/18 04:11:39;;;;;;;4.10;3.40;;;;;;;;;;5075518;28;20560;-70
2022/07/18 04:14:06;;;;;;;7.30;3.40;;;;;;;;;;5093619;28;20464;-70
2022/07/18 04:16:35;;;;;;;7.00;3.87;;;;;;;;;;5075625;28;20463;-71
2022/07/18 04:19:02;;;;;;;5.50;3.50;;;;;;;;;;5095101;28;20714;-70
2022/07/18 04:21:30;;;;;;;6.90;3.77;;;;;;;;;;5094983;28;20524;-70
2022/07/18 04:23:57;;;;;;;5.67;3.23;;;;;;;;;;5095839;28;20490;-70
2022/07/18 04:26:25;;;;;;;4.93;3.40;;;;;;;;;;5095436;28;20558;-69
2022/07/18 04:28:54;;;;;;;3.70;3.20;;;;;;;;;;5095094;28;21167;-70
2022/07/18 04:31:22;;;;;;;8.33;4.10;;;;;;;;;;5095591;28;21084;-69
2022/07/18 04:33:50;;;;;;;5.70;3.60;;;;;;;;;;5094800;28;20459;-69
2022/07/18 04:36:18;;;;;;;6.30;3.23;;;;;;;;;;5093162;28;20826;-69
2022/07/18 04:38:45;;;;;;;4.17;3.10;;;;;;;;;;5092957;28;20504;-69
2022/07/18 04:41:13;;;;;;;3.70;3.10;;;;;;;;;;5093758;28;20860;-69
2022/07/18 04:43:41;;;;;;;7.23;3.13;;;;;;;;;;5094098;28;20490;-69
2022/07/18 04:46:10;;;;;;;5.80;3.83;;;;;;;;;;5093424;28;20468;-69
2022/07/18 04:48:41;;;;;;;12.03;4.67;;;;;;;;;;5093836;28;20569;-69
2022/07/18 04:51:08;;;;;;;5.20;3.87;;;;;;;;;;5092039;28;20466;-69
2022/07/18 04:53:36;;;;;;;5.27;3.10;;;;;;;;;;5091951;28;20481;-70
2022/07/18 04:56:04;;;;;;;5.43;4.03;;;;;;;;;;5091527;28;20451;-69
2022/07/18 04:58:31;;;;;;;4.93;3.03;;;;;;;;;;5092911;28;20444;-69
2022/07/18 05:00:59;;;;;;;7.90;5.67;;;;;;;;;;5071368;28;20456;-70
2022/07/18 05:03:28;;;;;;;5.37;3.77;;;;;;;;;;5073435;28;20883;-69
2022/07/18 05:05:56;;;;;;;5.93;3.73;;;;;;;;;;5081084;28;20455;-69
2022/07/18 05:08:23;;;;;;;4.90;3.40;;;;;;;;;;5078481;28;20459;-69
2022/07/18 05:10:51;;;;;;;4.40;3.20;;;;;;;;;;5093058;28;20459;-69
2022/07/18 05:13:18;;;;;;;6.63;3.13;;;;;;;;;;5091503;28;20474;-69
2022/07/18 05:15:46;;;;;;;8.00;3.27;;;;;;;;;;5091578;28;20486;-69
2022/07/18 05:18:14;;;;;;;6.30;3.10;;;;;;;;;;5091892;28;20463;-69
2022/07/18 05:20:43;;;;;;;7.20;3.67;;;;;;;;;;5092318;28;20991;-69
2022/07/18 05:23:11;;;;;;;5.50;3.30;;;;;;;;;;5093942;28;20490;-70
2022/07/18 05:25:39;;;;;;;5.37;3.13;;;;;;;;;;5093359;28;20485;-69
2022/07/18 05:28:07;;;;;;;11.90;3.17;;;;;;;;;;5093142;28;20451;-69
2022/07/18 05:30:35;;;;;;;5.10;3.80;;;;;;;;;;5089857;28;20452;-69
2022/07/18 05:33:02;;;;;;;4.87;3.20;;;;;;;;;;5091037;28;20707;-70
2022/07/18 05:35:30;;;;;;;6.33;3.50;;;;;;;;;;5091514;28;20609;-70
2022/07/18 05:37:59;;;;;;;5.33;2.80;;;;;;;;;;5092350;28;20555;-70
2022/07/18 05:40:27;;;;;;;3.10;2.30;;;;;;;;;;5069538;28;20501;-69
2022/07/18 05:42:55;;;;;;;4.33;3.30;;;;;;;;;;5073485;28;20494;-69
2022/07/18 05:45:23;;;;;;;4.07;2.87;;;;;;;;;;5071452;28;20480;-69
2022/07/18 05:47:50;;;;;;;4.57;3.00;;;;;;;;;;5075286;28;20452;-69
2022/07/18 05:50:18;;;;;;;3.47;2.57;;;;;;;;;;5079210;28;20440;-69
2022/07/18 05:52:46;;;;;;;7.23;2.77;;;;;;;;;;5078473;28;20476;-69
2022/07/18 05:55:16;;;;;;;4.80;3.20;;;;;;;;;;5078919;28;20539;-69
2022/07/18 05:57:56;;;;;;;11.50;3.67;;;;;;;;;;5077584;28;20474;-69
2022/07/18 06:00:23;;;;;;;3.10;1.90;;;;;;;;;;5079932;28;20537;-69
2022/07/18 06:02:53;;;;;;;4.00;2.90;;;;;;;;;;5092547;28;20753;-70
2022/07/18 06:05:20;;;;;;;3.93;2.63;;;;;;;;;;5077075;28;21073;-69
2022/07/18 06:07:48;;;;;;;4.53;2.80;;;;;;;;;;5080185;28;20459;-69
2022/07/18 06:10:17;;;;;;;4.27;3.10;;;;;;;;;;5092709;28;20455;-69
2022/07/18 06:12:46;;;;;;;5.83;2.57;;;;;;;;;;5087863;28;20464;-69
2022/07/18 06:15:15;;;;;;;5.60;3.10;;;;;;;;;;5078553;28;20702;-69
2022/07/18 06:17:43;;;;;;;4.90;2.83;;;;;;;;;;5077894;28;20946;-69
2022/07/18 06:20:13;;;;;;;4.60;2.73;;;;;;;;;;5081173;28;20443;-69
2022/07/18 06:22:41;;;;;;;5.83;3.27;;;;;;;;;;5097223;28;20519;-69
2022/07/18 06:25:10;;;;;;;4.20;2.60;;;;;;;;;;5096946;28;20487;-70
2022/07/18 06:27:41;;;;;;;6.13;3.30;;;;;;;;;;5096592;28;20458;-70
2022/07/18 06:30:10;;;;;;;3.70;2.20;;;;;;;;;;5096218;28;20723;-69
2022/07/18 06:32:38;;;;;;;3.93;2.60;;;;;;;;;;5094988;28;20525;-69
2022/07/18 06:35:07;;;;;;;5.93;2.57;;;;;;;;;;5093869;28;20493;-70
2022/07/18 06:37:35;;;;;;;4.03;2.10;;;;;;;;;;5079199;28;20550;-69
2022/07/18 06:40:03;;;;;;;6.03;4.37;;;;;;;;;;5077565;28;20460;-69
2022/07/18 06:42:30;;;;;;;3.80;2.83;;;;;;;;;;5079609;28;20791;-69
2022/07/18 06:45:00;;;;;;;9.17;2.60;;;;;;;;;;5075615;28;20546;-69
2022/07/18 06:47:27;;;;;;;4.90;2.37;;;;;;;;;;5077864;28;20465;-69
2022/07/18 06:49:58;;;;;;;4.60;2.27;;;;;;;;;;5103858;28;20464;-69
2022/07/18 06:52:25;;;;;;;5.67;2.60;;;;;;;;;;5115486;28;20559;-69
2022/07/18 06:54:53;;;;;;;5.70;2.67;;;;;;;;;;5115891;28;20466;-69
2022/07/18 06:57:21;;;;;;;3.90;2.00;;;;;;;;;;5103997;28;20480;-70
2022/07/18 06:59:54;;;;;;;5.07;2.20;;;;;;;;;;5072640;28;20484;-70
2022/07/18 07:02:24;;;;;;;8.17;2.50;;;;;;;;;;5080150;28;20517;-70
2022/07/18 07:04:51;;;;;;;5.23;2.97;;;;;;;;;;5071618;28;20477;-70
2022/07/18 07:07:22;;;;;;;4.93;2.27;;;;;;;;;;5071246;28;20546;-70
2022/07/18 07:09:55;;;;;;;5.13;2.20;;;;;;;;;;5083284;28;20455;-69
2022/07/18 07:12:25;;;;;;;5.43;2.87;;;;;;;;;;5091944;28;20459;-69
2022/07/18 07:14:53;;;;;;;6.83;2.03;;;;;;;;;;5084288;28;20451;-69
2022/07/18 07:17:21;;;;;;;3.13;1.87;;;;;;;;;;5072534;28;20547;-69
2022/07/18 07:19:50;;;;;;;6.80;2.37;;;;;;;;;;5073241;28;20538;-68
2022/07/18 07:22:18;;;;;;;6.30;2.67;;;;;;;;;;5072705;28;20475;-69
2022/07/18 07:24:45;;;;;;;3.50;1.90;;;;;;;;;;5080186;28;21124;-69
2022/07/18 07:27:14;;;;;;;4.83;2.40;;;;;;;;;;5082984;28;20472;-69
2022/07/18 07:29:41;;;;;;;3.57;2.50;;;;;;;;;;5082901;28;20463;-69
2022/07/18 07:32:09;;;;;;;4.50;2.50;;;;;;;;;;5074202;28;20725;-69
2022/07/18 07:34:37;;;;;;;4.70;2.40;;;;;;;;;;5080542;28;20583;-70
2022/07/18 07:37:06;;;;;;;9.37;5.03;;;;;;;;;;5085804;28;20465;-70
2022/07/18 07:39:34;;;;;;;5.03;2.50;;;;;;;;;;5080067;28;20500;-69
2022/07/18 07:42:05;;;;;;;4.20;2.87;;;;;;;;;;5076805;28;20467;-70
2022/07/18 07:44:33;;;;;;;3.70;2.13;;;;;;;;;;5072455;28;20461;-71
2022/07/18 07:47:01;;;;;;;6.27;2.97;;;;;;;;;;5071440;28;20468;-70
2022/07/18 07:49:33;;;;;;;4.63;2.60;;;;;;;;;;5074265;28;20469;-70
2022/07/18 07:52:02;;;;;;;5.23;3.33;;;;;;;;;;5099184;28;20976;-70
2022/07/18 07:54:34;;;;;;;4.80;2.70;;;;;;;;;;5099463;28;20544;-70
2022/07/18 07:57:02;;;;;;;4.20;2.80;;;;;;;;;;5074600;28;20468;-71
2022/07/18 07:59:31;;;;;;;6.23;4.73;;;;;;;;;;5071936;28;21000;-69
2022/07/18 08:01:59;;;;;;;4.57;3.40;;;;;;;;;;5072772;28;20465;-70
2022/07/18 08:04:27;;;;;;;4.30;3.20;;;;;;;;;;5082388;28;20498;-69
2022/07/18 08:06:58;;;;;;;6.90;4.07;;;;;;;;;;5091110;28;20457;-70
2022/07/18 08:09:26;;;;;;;4.27;3.27;;;;;;;;;;5092350;28;20451;-70
2022/07/18 08:11:55;;;;;;;6.83;3.83;;;;;;;;;;5091195;28;20468;-70
2022/07/18 08:14:23;;;;;;;5.97;4.10;;;;;;;;;;5089424;28;20524;-70
2022/07/18 08:16:50;;;;;;;7.57;4.20;;;;;;;;;;5090413;28;20476;-70
2022/07/18 08:19:18;;;;;;;5.17;3.80;;;;;;;;;;5071923;28;20471;-70
2022/07/18 08:21:46;;;;;;;6.87;4.33;;;;;;;;;;5074837;28;20520;-70
2022/07/18 08:24:14;;;;;;;7.90;3.93;;;;;;;;;;5079850;28;20495;-69
2022/07/18 08:26:42;;;;;;;6.83;4.80;;;;;;;;;;5080084;28;20485;-69
2022/07/18 08:29:15;;;;;;;5.90;4.07;;;;;;;;;;5070423;28;20952;-71
2022/07/18 08:31:44;;;;;;;9.23;5.50;;;;;;;;;;5079905;28;21251;-71
2022/07/18 08:34:14;;;;;;;6.17;4.97;;;;;;;;;;5073828;28;20562;-69
2022/07/18 08:36:44;;;;;;;6.70;3.60;;;;;;;;;;5080146;28;20845;-71
2022/07/18 08:39:14;;;;;;;6.07;4.30;;;;;;;;;;5086324;28;20460;-71
2022/07/18 08:41:46;;;;;;;6.13;4.03;;;;;;;;;;5079321;28;20544;-71
2022/07/18 08:44:16;;;;;;;9.10;6.83;;;;;;;;;;5071813;28;20977;-70
2022/07/18 08:46:47;;;;;;;6.53;4.10;;;;;;;;;;5076966;28;20499;-70
2022/07/18 08:49:15;;;;;;;7.10;4.97;;;;;;;;;;5081668;28;20499;-71
2022/07/18 08:51:44;;;;;;;10.67;8.40;;;;;;;;;;5080519;28;20556;-71
2022/07/18 08:54:12;;;;;;;6.20;4.50;;;;;;;;;;5082446;28;20460;-70
2022/07/18 08:56:39;;;;;;;7.77;4.60;;;;;;;;;;5089793;28;20482;-70
2022/07/18 08:59:09;;;;;;;9.03;4.43;;;;;;;;;;5074093;28;20499;-71
2022/07/18 09:01:45;;;;;;;5.43;3.87;;;;;;;;;;5073555;28;20526;-71
2022/07/18 09:04:34;;;;;;;6.77;4.90;;;;;;;;;;5080694;28;20455;-71
2022/07/18 09:07:04;;;;;;;7.40;4.03;;;;;;;;;;5079495;28;20488;-72
2022/07/18 09:09:32;;;;;;;7.23;4.20;;;;;;;;;;5078841;28;20686;-71
2022/07/18 09:12:01;;;;;;;6.43;3.77;;;;;;;;;;5076178;28;20870;-71
2022/07/18 09:14:30;;;;;;;7.10;4.00;;;;;;;;;;5079256;28;20484;-72
2022/07/18 09:17:08;;;;;;;12.70;3.60;;;;;;;;;;5076420;28;20471;-71
2022/07/18 09:19:37;;;;;;;6.03;3.47;;;;;;;;;;5079249;28;20523;-72
2022/07/18 09:22:15;;;;;;;4.23;3.03;;;;;;;;;;5073747;28;20955;-70
2022/07/18 09:24:55;;;;;;;5.67;3.37;;;;;;;;;;5079315;28;20472;-71
2022/07/18 09:27:32;;;;;;;4.93;3.50;;;;;;;;;;5073980;28;20769;-69
2022/07/18 09:30:19;;;;;;;5.40;3.40;;;;;;;;;;5071550;28;20600;-70
2022/07/18 09:33:10;;;;;;;5.40;3.63;;;;;;;;;;5066238;28;20473;-70
2022/07/18 09:35:49;;;;;;;6.97;4.40;;;;;;;;;;5062327;28;20533;-70
2022/07/18 09:38:20;;;;;;;6.60;4.50;;;;;;;;;;5074050;28;20464;-71
2022/07/18 09:40:49;;;;;;;6.03;4.10;;;;;;;;;;5076021;28;20470;-70
2022/07/18 09:43:18;;;;;;;6.93;4.40;;;;;;;;;;5080785;28;20471;-70
2022/07/18 09:45:47;;;;;;;5.53;3.93;;;;;;;;;;5069913;28;20485;-71
2022/07/18 09:48:21;;;;;;;6.07;4.20;;;;;;;;;;5071944;28;20811;-71
2022/07/18 09:50:56;;;;;;;6.10;4.13;;;;;;;;;;5074009;28;20468;-70
2022/07/18 09:53:37;;;;;;;6.53;4.23;;;;;;;;;;5069720;28;20452;-70
2022/07/18 09:56:11;;;;;;;6.10;4.30;;;;;;;;;;5073737;28;21001;-71
2022/07/18 09:58:40;;;;;;;5.27;4.53;;;;;;;;;;5074952;28;20471;-70
2022/07/18 10:01:09;;;;;;;8.13;4.53;;;;;;;;;;5075206;28;20868;-70
2022/07/18 10:03:41;;;;;;;6.70;4.47;;;;;;;;;;5079961;28;20879;-71
2022/07/18 10:06:12;;;;;;;6.10;4.43;;;;;;;;;;5076167;28;20511;-71
2022/07/18 10:08:43;;;;;;;7.17;4.90;;;;;;;;;;5080090;28;20462;-70
2022/07/18 10:11:15;;;;;;;6.23;3.90;;;;;;;;;;5071070;28;20452;-71
2022/07/18 10:13:45;;;;;;;5.30;4.03;;;;;;;;;;5080737;28;21023;-70
2022/07/18 10:16:13;;;;;;;6.87;4.10;;;;;;;;;;5083751;28;20586;-70
2022/07/18 10:18:59;;;;;;;7.13;5.10;;;;;;;;;;5071027;28;20570;-71
2022/07/18 10:21:30;;;;;;;6.90;4.37;;;;;;;;;;5075847;28;21120;-72
2022/07/18 10:24:09;;;;;;;6.17;4.50;;;;;;;;;;5084300;28;20799;-71
2022/07/18 10:26:37;;;;;;;5.67;3.80;;;;;;;;;;5082994;28;20486;-72
2022/07/18 10:29:12;;;;;;;5.97;3.97;;;;;;;;;;5074194;28;20502;-72
2022/07/18 10:31:42;;;;;;;4.80;3.07;;;;;;;;;;5072036;28;20456;-72
2022/07/18 10:34:19;;;;;;;5.33;3.67;;;;;;;;;;5082250;28;20536;-71
2022/07/18 10:37:06;;;;;;;7.53;4.53;;;;;;;;;;5078494;28;20518;-71
2022/07/18 10:39:34;;;;;;;7.20;4.27;;;;;;;;;;5080794;28;21024;-72
2022/07/18 10:42:19;;;;;;;5.30;3.50;;;;;;;;;;5075719;28;20468;-72
2022/07/18 10:44:48;;;;;;;5.10;3.73;;;;;;;;;;5078435;28;20542;-72
2022/07/18 10:47:20;;;;;;;6.30;3.90;;;;;;;;;;5079688;28;20585;-72
2022/07/18 10:50:12;;;;;;;5.53;4.10;;;;;;;;;;5079680;28;20465;-71
2022/07/18 10:53:01;;;;;;;5.00;3.80;;;;;;;;;;5075319;28;20456;-71
2022/07/18 10:55:29;;;;;;;10.40;3.90;;;;;;;;;;5082360;28;20889;-72
2022/07/18 10:58:21;;;;;;;5.00;3.10;;;;;;;;;;5076772;28;20504;-72
2022/07/18 11:00:53;;;;;;;4.83;3.93;;;;;;;;;;5081989;28;20459;-72
2022/07/18 11:03:33;;;;;;;5.60;3.40;;;;;;;;;;5067506;28;20473;-70
2022/07/18 11:06:01;;;;;;;8.20;4.10;;;;;;;;;;5067205;28;20520;-71
2022/07/18 11:08:36;;;;;;;5.47;3.63;;;;;;;;;;5084330;28;20937;-71
2022/07/18 11:11:29;;;;;;;5.93;4.53;;;;;;;;;;5080151;28;20467;-71
2022/07/18 11:14:08;;;;;;;4.87;3.07;;;;;;;;;;5080957;28;20451;-72
2022/07/18 11:16:57;;;;;;;4.20;2.40;;;;;;;;;;5089451;28;20471;-69
2022/07/18 11:19:29;;;;;;;3.97;2.77;;;;;;;;;;5083599;28;20537;-69
2022/07/18 11:22:00;;;;;;;5.80;3.50;;;;;;;;;;5083998;28;20467;-70
2022/07/18 11:24:33;;;;;;;4.93;3.37;;;;;;;;;;5091019;28;20450;-70
2022/07/18 11:27:06;;;;;;;7.20;4.10;;;;;;;;;;5090530;28;20636;-71
2022/07/18 11:29:46;;;;;;;4.37;2.93;;;;;;;;;;5069923;28;20530;-71
2022/07/18 11:32:13;;;;;;;6.73;3.53;;;;;;;;;;5078321;28;20502;-70
2022/07/18 11:35:05;;;;;;;4.30;2.90;;;;;;;;;;5083621;28;20463;-71
2022/07/18 11:37:40;;;;;;;7.00;3.60;;;;;;;;;;5081964;28;20628;-72
2022/07/18 11:40:11;;;;;;;4.37;2.13;;;;;;;;;;5088178;28;20467;-71
2022/07/18 11:42:41;;;;;;;6.03;3.30;;;;;;;;;;5078700;28;20496;-72
2022/07/18 11:45:09;;;;;;;12.43;7.10;;;;;;;;;;5087700;28;20728;-71
2022/07/18 11:47:40;;;;;;;9.23;7.20;;;;;;;;;;5088148;28;20495;-71
2022/07/18 11:50:09;;;;;;;7.70;4.83;;;;;;;;;;5084258;28;20445;-71
2022/07/18 11:52:37;;;;;;;8.90;4.10;;;;;;;;;;5085948;28;20745;-71
2022/07/18 11:55:07;;;;;;;6.53;4.07;;;;;;;;;;5072943;28;20492;-71
2022/07/18 11:57:38;;;;;;;10.10;4.70;;;;;;;;;;5073355;28;20540;-71
2022/07/18 12:00:16;;;;;;;4.63;3.70;;;;;;;;;;5068730;28;20545;-70
2022/07/18 12:03:04;;;;;;;5.37;3.70;;;;;;;;;;5079028;28;20467;-71
2022/07/18 12:05:44;;;;;;;6.27;4.10;;;;;;;;;;5087185;28;20681;-71
2022/07/18 12:08:28;;;;;;;6.23;4.37;;;;;;;;;;5074969;28;21072;-73
2022/07/18 12:11:11;;;;;;;6.97;3.20;;;;;;;;;;5062503;28;20476;-71
2022/07/18 12:13:44;;;;;;;8.37;5.00;;;;;;;;;;5079578;28;20550;-71
2022/07/18 12:16:27;;;;;;;9.23;6.67;;;;;;;;;;5065447;28;20912;-71
2022/07/18 12:18:56;;;;;;;9.23;6.03;;;;;;;;;;5066185;28;21123;-71
2022/07/18 12:21:27;;;;;;;8.00;3.93;;;;;;;;;;5073513;28;20567;-71
2022/07/18 12:24:27;;;;;;;5.10;3.40;;;;;;;;;;5077665;28;20460;-71
2022/07/18 12:27:16;;;;;;;6.40;3.33;;;;;;;;;;5077820;28;20488;-70
2022/07/18 12:30:06;;;;;;;9.70;4.90;;;;;;;;;;5077371;28;20468;-70
2022/07/18 12:32:54;;;;;;;6.73;4.00;;;;;;;;;;5084431;28;20474;-72
2022/07/18 12:35:26;;;;;;;6.73;3.30;;;;;;;;;;5070125;28;20461;-72
2022/07/18 12:37:56;;;;;;;5.97;3.50;;;;;;;;;;5075959;28;20468;-72
2022/07/18 12:40:24;;;;;;;6.40;4.20;;;;;;;;;;5078533;28;21055;-71
2022/07/18 12:43:18;;;;;;;7.67;3.27;;;;;;;;;;5082861;28;20763;-72
2022/07/18 12:45:52;;;;;;;4.33;2.60;;;;;;;;;;5088716;28;20538;-72
2022/07/18 12:48:22;;;;;;;4.73;2.73;;;;;;;;;;5072294;28;20464;-71
2022/07/18 12:50:58;;;;;;;5.90;2.90;;;;;;;;;;5080445;28;20866;-72
2022/07/18 12:56:44;;;;;;;5.50;2.43;;;;;;;;;;4988944;28;20476;-72
2022/07/18 12:59:15;;;;;;;7.43;2.47;;;;;;;;;;5068019;28;20464;-72
2022/07/18 13:01:49;;;;;;;3.40;2.50;;;;;;;;;;5075952;28;20570;-72
2022/07/18 13:04:19;;;;;;;5.10;3.10;;;;;;;;;;5079408;28;20476;-71
2022/07/18 13:06:49;;;;;;;3.23;2.37;;;;;;;;;;5086348;28;20826;-70
2022/07/18 13:09:18;;;;;;;7.10;4.63;;;;;;;;;;5072119;28;20452;-72
2022/07/18 13:11:47;;;;;;;4.03;2.80;;;;;;;;;;5084189;28;20931;-72
2022/07/18 13:14:15;;;;;;;3.60;2.17;;;;;;;;;;5087997;28;20495;-72
2022/07/18 13:16:45;;;;;;;4.87;2.70;;;;;;;;;;5074420;28;20482;-71
2022/07/18 13:19:14;;;;;;;5.03;2.10;;;;;;;;;;5078562;28;20491;-71
2022/07/18 13:21:44;;;;;;;14.20;2.70;;;;;;;;;;5087583;28;20479;-70
2022/07/18 13:24:15;;;;;;;3.67;1.90;;;;;;;;;;5083408;28;20524;-69
2022/07/18 13:26:45;;;;;;;3.30;2.10;;;;;;;;;;5072846;28;20484;-70
2022/07/18 13:29:16;;;;;;;4.00;2.43;;;;;;;;;;5074204;28;20460;-69
2022/07/18 13:31:45;;;;;;;5.03;2.57;;;;;;;;;;5073621;28;20586;-70
2022/07/18 13:34:14;;;;;;;5.43;3.43;;;;;;;;;;5081376;28;20472;-71
2022/07/18 13:36:42;;;;;;;5.43;2.93;;;;;;;;;;5069680;28;20460;-70
2022/07/18 13:39:11;;;;;;;3.43;1.77;;;;;;;;;;5069334;28;20453;-69
2022/07/18 13:41:39;;;;;;;8.70;4.40;;;;;;;;;;5069017;28;20567;-69
2022/07/18 13:44:12;;;;;;;3.33;2.00;;;;;;;;;;5069122;28;20531;-71
2022/07/18 13:46:42;;;;;;;3.67;2.37;;;;;;;;;;5068910;28;20492;-70
2022/07/18 13:49:10;;;;;;;3.70;1.87;;;;;;;;;;5068765;28;20452;-71
2022/07/18 13:51:40;;;;;;;3.27;1.80;;;;;;;;;;5068521;28;20861;-68
2022/07/18 13:54:08;;;;;;;6.50;3.43;;;;;;;;;;5068405;28;20444;-70
2022/07/18 13:56:39;;;;;;;3.90;2.07;;;;;;;;;;5067101;28;20909;-69
2022/07/18 13:59:10;;;;;;;2.43;1.57;;;;;;;;;;5068531;28;20444;-70
2022/07/18 14:01:38;;;;;;;3.87;1.77;;;;;;;;;;5070171;28;20457;-72
2022/07/18 14:04:06;;;;;;;2.77;1.63;;;;;;;;;;5070653;28;20538;-70
2022/07/18 14:06:35;;;;;;;3.50;1.57;;;;;;;;;;5087613;28;20483;-72
2022/07/18 14:09:08;;;;;;;4.07;1.30;;;;;;;;;;5078584;28;20496;-72
2022/07/18 14:11:36;;;;;;;3.00;1.90;;;;;;;;;;5089196;28;20455;-72
2022/07/18 14:14:05;;;;;;;5.60;1.73;;;;;;;;;;5074087;28;20460;-70
2022/07/18 14:16:37;;;;;;;3.87;1.87;;;;;;;;;;5078056;28;20570;-71
2022/07/18 14:19:07;;;;;;;2.80;1.40;;;;;;;;;;5083084;28;20542;-71
2022/07/18 14:21:36;;;;;;;4.20;1.90;;;;;;;;;;5085365;28;20547;-72
2022/07/18 14:24:05;;;;;;;4.63;1.87;;;;;;;;;;5077598;28;20460;-71
2022/07/18 14:26:34;;;;;;;3.90;2.13;;;;;;;;;;5087366;28;20455;-72
2022/07/18 14:29:02;;;;;;;3.10;1.47;;;;;;;;;;5085821;28;20458;-72
2022/07/18 14:31:30;;;;;;;3.83;1.80;;;;;;;;;;5077263;28;20464;-71
2022/07/18 14:34:00;;;;;;;3.17;1.80;;;;;;;;;;5087032;28;20981;-71
2022/07/18 14:36:29;;;;;;;4.60;1.90;;;;;;;;;;5073725;28;20563;-72
2022/07/18 14:38:57;;;;;;;4.27;1.70;;;;;;;;;;5071451;28;20760;-72
2022/07/18 14:41:28;;;;;;;3.90;1.73;;;;;;;;;;5071508;28;20452;-72
2022/07/18 14:44:01;;;;;;;3.50;1.63;;;;;;;;;;5059579;28;20477;-72
2022/07/18 14:46:32;;;;;;;4.07;1.90;;;;;;;;;;5075038;28;20476;-70
2022/07/18 14:49:00;;;;;;;5.00;2.03;;;;;;;;;;5076775;28;20471;-72
2022/07/18 14:51:29;;;;;;;2.33;1.40;;;;;;;;;;5086831;28;20524;-71
2022/07/18 14:53:57;;;;;;;4.50;1.57;;;;;;;;;;5075434;28;20546;-71
2022/07/18 14:56:25;;;;;;;4.00;2.27;;;;;;;;;;5071876;28;20464;-71
2022/07/18 14:58:55;;;;;;;3.50;1.90;;;;;;;;;;5075212;28;20927;-70
2022/07/18 15:01:32;;;;;;;2.63;1.83;;;;;;;;;;5088258;28;20459;-70
2022/07/18 15:04:06;;;;;;;3.23;1.83;;;;;;;;;;5088479;28;20517;-70
2022/07/18 15:06:34;;;;;;;13.00;3.00;;;;;;;;;;5073849;28;20557;-69
2022/07/18 15:09:02;;;;;;;4.03;2.80;;;;;;;;;;5076221;28;20459;-70